Terminal Aerodrome Forecast
Issued by NWS Miami, FL

Home | Current Version | Previous Version | Text Only | Print | Product List | Glossary On
Versions: 1 2 3 4 5 6 7 8 9 10 11 12 13 14 15 16 17 18 19 20 21 22 23 24 25 26 27 28 29 30
000
FTUS42 KMFL 222332
TAFAPF
TAF
KAPF 222332Z 2300/2324 09005KT P6SM VCTS BKN040CB OVC070
      TEMPO 2302/2305 VRB15G20KT TSRA
     FM230500 06005KT P6SM SCT035 SCT060
     FM231400 06006KT P6SM VCTS SCT030CB
     FM232200 07007KT P6SM OVC050=

USA.gov is the U.S. government's official web portal to all federal, state and local government web resources and services.